Search for airport 
image banner adimage banner adimage banner ad
image banner ad

KHWD - Hayward Executive

Located in Hayward, United States

ICAO - HWD, IATA - HWD

Data provided by Airmate  

General information

Coordinates: N37°39'32" W122°7'18"
Elevation is 52 feet MSL.
Magnetic variation is 15° East
View others Airports in California

Operational data

Special qualification required
Current time UTC:
Current local time:
Weather
METAR: KHWD 221354Z 15004KT 10SM BKN027 17/12 A2992 RMK AO2 SLP139 T01720122
View NOTAMs / SUP AIP / TFR affecting this airport [VIEW]
Communications frequencies: [VIEW]

Runways:

RWY identifierQFULength (ft)Width (ft)SurfaceLDA (ft)
10R119°5694150ASPH
28L299°5694150ASPH
10L119°310775ASPH
28R299°310775ASPH

Airport contact information

Address: Hayward United States

Other aviation service providers

Flight schools

California Airways

California Airways

Flying Vikings, Inc.

Flying Vikings, Inc.
info@flyingvikings.com+1(510)670-4719

West Valley Flying Club

West Valley Flying Club
ashley@wvfc.org+1(510)781-0101

Hayward Flight

Hayward Flight
info@haywardflight.com+1(510)259-0824

Jato Aviation

Jato Aviation
ops@jatoaviation.com+1(650)654-5286

Satellite view of KHWD